sensor_id;sensor_type;location;lat;lon;timestamp;P1;durP1;ratioP1;P2;durP2;ratioP2
22334;SDS011;11335;43.848;25.958;2022-12-07T00:02:07;48.70;;;20.20;;
22334;SDS011;11335;43.848;25.958;2022-12-07T00:04:53;45.20;;;19.33;;
22334;SDS011;11335;43.848;25.958;2022-12-07T00:07:39;44.17;;;19.40;;
22334;SDS011;11335;43.848;25.958;2022-12-07T00:10:24;44.58;;;19.00;;
22334;SDS011;11335;43.848;25.958;2022-12-07T00:13:10;42.58;;;18.83;;
22334;SDS011;11335;43.848;25.958;2022-12-07T00:15:55;49.22;;;19.52;;
22334;SDS011;11335;43.848;25.958;2022-12-07T00:18:41;42.70;;;18.92;;
22334;SDS011;11335;43.848;25.958;2022-12-07T00:21:28;42.42;;;19.48;;
22334;SDS011;11335;43.848;25.958;2022-12-07T00:24:14;41.55;;;19.00;;
22334;SDS011;11335;43.848;25.958;2022-12-07T00:26:59;49.10;;;20.88;;
22334;SDS011;11335;43.848;25.958;2022-12-07T00:29:45;45.78;;;19.55;;
22334;SDS011;11335;43.848;25.958;2022-12-07T00:32:30;48.28;;;19.38;;
22334;SDS011;11335;43.848;25.958;2022-12-07T00:35:16;54.38;;;19.88;;
22334;SDS011;11335;43.848;25.958;2022-12-07T00:38:01;41.38;;;18.77;;
22334;SDS011;11335;43.848;25.958;2022-12-07T00:40:53;43.10;;;17.85;;
22334;SDS011;11335;43.848;25.958;2022-12-07T00:43:39;38.45;;;18.00;;
22334;SDS011;11335;43.848;25.958;2022-12-07T00:46:25;33.33;;;16.88;;
22334;SDS011;11335;43.848;25.958;2022-12-07T00:49:11;42.90;;;19.23;;
22334;SDS011;11335;43.848;25.958;2022-12-07T00:51:56;42.53;;;18.90;;
22334;SDS011;11335;43.848;25.958;2022-12-07T00:54:42;48.88;;;19.45;;
22334;SDS011;11335;43.848;25.958;2022-12-07T00:57:28;48.72;;;19.58;;
22334;SDS011;11335;43.848;25.958;2022-12-07T01:00:15;38.95;;;18.20;;
22334;SDS011;11335;43.848;25.958;2022-12-07T01:03:01;48.80;;;18.20;;
22334;SDS011;11335;43.848;25.958;2022-12-07T01:05:50;40.20;;;19.08;;
22334;SDS011;11335;43.848;25.958;2022-12-07T01:08:36;36.65;;;17.35;;
22334;SDS011;11335;43.848;25.958;2022-12-07T01:11:23;44.10;;;18.50;;
22334;SDS011;11335;43.848;25.958;2022-12-07T01:14:09;43.55;;;18.00;;
22334;SDS011;11335;43.848;25.958;2022-12-07T01:16:54;36.95;;;16.95;;
22334;SDS011;11335;43.848;25.958;2022-12-07T01:19:40;42.05;;;17.75;;
22334;SDS011;11335;43.848;25.958;2022-12-07T01:22:26;36.53;;;17.00;;
22334;SDS011;11335;43.848;25.958;2022-12-07T01:25:11;39.63;;;17.45;;
22334;SDS011;11335;43.848;25.958;2022-12-07T01:27:57;40.47;;;18.33;;
22334;SDS011;11335;43.848;25.958;2022-12-07T01:30:43;39.65;;;18.48;;
22334;SDS011;11335;43.848;25.958;2022-12-07T01:33:29;38.25;;;17.58;;
22334;SDS011;11335;43.848;25.958;2022-12-07T01:36:16;40.53;;;19.00;;
22334;SDS011;11335;43.848;25.958;2022-12-07T01:39:03;37.05;;;18.05;;
22334;SDS011;11335;43.848;25.958;2022-12-07T01:41:49;41.85;;;18.67;;
22334;SDS011;11335;43.848;25.958;2022-12-07T01:45:18;36.88;;;17.40;;
22334;SDS011;11335;43.848;25.958;2022-12-07T01:47:53;36.40;;;17.60;;
22334;SDS011;11335;43.848;25.958;2022-12-07T01:50:40;35.33;;;17.15;;
22334;SDS011;11335;43.848;25.958;2022-12-07T01:53:26;35.05;;;17.42;;
22334;SDS011;11335;43.848;25.958;2022-12-07T01:56:15;36.35;;;16.80;;
22334;SDS011;11335;43.848;25.958;2022-12-07T01:59:02;35.90;;;17.00;;
22334;SDS011;11335;43.848;25.958;2022-12-07T02:01:48;34.15;;;16.80;;
22334;SDS011;11335;43.848;25.958;2022-12-07T02:04:33;34.10;;;16.65;;
22334;SDS011;11335;43.848;25.958;2022-12-07T02:07:20;33.53;;;17.15;;
22334;SDS011;11335;43.848;25.958;2022-12-07T02:13:26;38.63;;;17.77;;
22334;SDS011;11335;43.848;25.958;2022-12-07T02:30:22;42.50;;;18.15;;
22334;SDS011;11335;43.848;25.958;2022-12-07T02:35:56;39.60;;;17.38;;
22334;SDS011;11335;43.848;25.958;2022-12-07T02:41:38;44.78;;;18.67;;
22334;SDS011;11335;43.848;25.958;2022-12-07T02:44:26;44.42;;;19.02;;
22334;SDS011;11335;43.848;25.958;2022-12-07T02:47:13;49.75;;;20.52;;
22334;SDS011;11335;43.848;25.958;2022-12-07T02:50:02;48.40;;;19.80;;
22334;SDS011;11335;43.848;25.958;2022-12-07T02:52:48;53.58;;;21.10;;
22334;SDS011;11335;43.848;25.958;2022-12-07T02:55:34;50.63;;;20.35;;
22334;SDS011;11335;43.848;25.958;2022-12-07T03:04:16;48.20;;;19.35;;
22334;SDS011;11335;43.848;25.958;2022-12-07T03:13:28;50.72;;;19.58;;
22334;SDS011;11335;43.848;25.958;2022-12-07T03:21:51;59.63;;;20.50;;
22334;SDS011;11335;43.848;25.958;2022-12-07T03:24:39;52.55;;;20.50;;
22334;SDS011;11335;43.848;25.958;2022-12-07T03:27:34;64.82;;;20.98;;
22334;SDS011;11335;43.848;25.958;2022-12-07T03:30:27;53.42;;;20.92;;
22334;SDS011;11335;43.848;25.958;2022-12-07T03:33:16;60.50;;;20.90;;
22334;SDS011;11335;43.848;25.958;2022-12-07T03:36:05;56.78;;;19.95;;
22334;SDS011;11335;43.848;25.958;2022-12-07T03:39:17;59.03;;;20.70;;
22334;SDS011;11335;43.848;25.958;2022-12-07T03:41:58;58.88;;;19.70;;
22334;SDS011;11335;43.848;25.958;2022-12-07T03:44:45;63.38;;;22.08;;
22334;SDS011;11335;43.848;25.958;2022-12-07T03:47:46;58.90;;;20.55;;
22334;SDS011;11335;43.848;25.958;2022-12-07T03:53:25;57.63;;;21.70;;
22334;SDS011;11335;43.848;25.958;2022-12-07T03:56:13;56.53;;;20.75;;
22334;SDS011;11335;43.848;25.958;2022-12-07T03:58:59;61.33;;;20.08;;
22334;SDS011;11335;43.848;25.958;2022-12-07T04:01:45;54.13;;;21.38;;
22334;SDS011;11335;43.848;25.958;2022-12-07T04:04:36;63.65;;;23.45;;
22334;SDS011;11335;43.848;25.958;2022-12-07T04:07:22;57.28;;;23.27;;
22334;SDS011;11335;43.848;25.958;2022-12-07T04:10:07;53.10;;;22.20;;
22334;SDS011;11335;43.848;25.958;2022-12-07T04:12:53;66.40;;;23.73;;
22334;SDS011;11335;43.848;25.958;2022-12-07T04:15:38;58.33;;;23.48;;
22334;SDS011;11335;43.848;25.958;2022-12-07T04:18:24;52.42;;;22.90;;
22334;SDS011;11335;43.848;25.958;2022-12-07T04:21:09;52.72;;;23.27;;
22334;SDS011;11335;43.848;25.958;2022-12-07T04:23:55;48.65;;;21.30;;
22334;SDS011;11335;43.848;25.958;2022-12-07T04:26:41;49.72;;;21.70;;
22334;SDS011;11335;43.848;25.958;2022-12-07T04:29:27;47.15;;;21.20;;
22334;SDS011;11335;43.848;25.958;2022-12-07T04:32:12;47.97;;;21.05;;
22334;SDS011;11335;43.848;25.958;2022-12-07T04:34:58;49.30;;;20.58;;
22334;SDS011;11335;43.848;25.958;2022-12-07T04:37:43;49.47;;;20.70;;
22334;SDS011;11335;43.848;25.958;2022-12-07T04:40:29;48.67;;;21.05;;
22334;SDS011;11335;43.848;25.958;2022-12-07T04:43:15;50.60;;;20.75;;
22334;SDS011;11335;43.848;25.958;2022-12-07T04:46:00;47.97;;;19.50;;
22334;SDS011;11335;43.848;25.958;2022-12-07T04:48:46;49.25;;;21.67;;
22334;SDS011;11335;43.848;25.958;2022-12-07T04:51:32;49.13;;;21.92;;
22334;SDS011;11335;43.848;25.958;2022-12-07T04:54:18;54.42;;;22.33;;
22334;SDS011;11335;43.848;25.958;2022-12-07T04:57:03;48.10;;;20.92;;
22334;SDS011;11335;43.848;25.958;2022-12-07T04:59:49;52.17;;;21.98;;
22334;SDS011;11335;43.848;25.958;2022-12-07T05:02:34;50.72;;;20.95;;
22334;SDS011;11335;43.848;25.958;2022-12-07T05:05:20;52.63;;;22.55;;
22334;SDS011;11335;43.848;25.958;2022-12-07T05:08:05;53.50;;;22.35;;
22334;SDS011;11335;43.848;25.958;2022-12-07T05:10:51;54.53;;;22.80;;
22334;SDS011;11335;43.848;25.958;2022-12-07T05:13:37;46.22;;;20.98;;
22334;SDS011;11335;43.848;25.958;2022-12-07T05:16:22;53.75;;;22.75;;
22334;SDS011;11335;43.848;25.958;2022-12-07T05:19:08;50.63;;;22.08;;
22334;SDS011;11335;43.848;25.958;2022-12-07T05:21:53;50.28;;;21.27;;
22334;SDS011;11335;43.848;25.958;2022-12-07T05:24:39;50.90;;;21.55;;
22334;SDS011;11335;43.848;25.958;2022-12-07T05:27:25;50.13;;;22.08;;
22334;SDS011;11335;43.848;25.958;2022-12-07T05:30:10;63.30;;;23.45;;
22334;SDS011;11335;43.848;25.958;2022-12-07T05:32:56;52.58;;;21.75;;
22334;SDS011;11335;43.848;25.958;2022-12-07T05:35:42;50.28;;;22.58;;
22334;SDS011;11335;43.848;25.958;2022-12-07T05:38:28;48.22;;;22.02;;
22334;SDS011;11335;43.848;25.958;2022-12-07T05:41:17;50.90;;;23.13;;
22334;SDS011;11335;43.848;25.958;2022-12-07T05:44:21;53.08;;;22.17;;
22334;SDS011;11335;43.848;25.958;2022-12-07T05:47:07;48.22;;;22.98;;
22334;SDS011;11335;43.848;25.958;2022-12-07T05:49:53;48.67;;;22.25;;
22334;SDS011;11335;43.848;25.958;2022-12-07T05:52:38;47.38;;;20.65;;
22334;SDS011;11335;43.848;25.958;2022-12-07T05:55:24;48.80;;;21.75;;
22334;SDS011;11335;43.848;25.958;2022-12-07T05:58:10;52.03;;;21.95;;
22334;SDS011;11335;43.848;25.958;2022-12-07T06:01:14;50.10;;;21.92;;
22334;SDS011;11335;43.848;25.958;2022-12-07T06:04:00;47.45;;;22.45;;
22334;SDS011;11335;43.848;25.958;2022-12-07T06:06:45;48.00;;;22.35;;
22334;SDS011;11335;43.848;25.958;2022-12-07T06:09:31;52.85;;;22.38;;
22334;SDS011;11335;43.848;25.958;2022-12-07T06:12:17;49.50;;;22.73;;
22334;SDS011;11335;43.848;25.958;2022-12-07T06:15:20;62.05;;;25.25;;
22334;SDS011;11335;43.848;25.958;2022-12-07T06:18:08;58.22;;;24.02;;
22334;SDS011;11335;43.848;25.958;2022-12-07T06:20:53;48.88;;;21.10;;
22334;SDS011;11335;43.848;25.958;2022-12-07T06:23:39;45.63;;;20.58;;
22334;SDS011;11335;43.848;25.958;2022-12-07T06:26:25;47.53;;;21.75;;
22334;SDS011;11335;43.848;25.958;2022-12-07T06:29:10;44.08;;;19.10;;
22334;SDS011;11335;43.848;25.958;2022-12-07T06:31:56;41.72;;;19.83;;
22334;SDS011;11335;43.848;25.958;2022-12-07T06:34:42;45.92;;;21.45;;
22334;SDS011;11335;43.848;25.958;2022-12-07T06:37:27;39.92;;;19.25;;
22334;SDS011;11335;43.848;25.958;2022-12-07T06:40:13;38.75;;;19.95;;
22334;SDS011;11335;43.848;25.958;2022-12-07T06:42:59;37.22;;;18.73;;
22334;SDS011;11335;43.848;25.958;2022-12-07T06:45:44;37.17;;;18.58;;
22334;SDS011;11335;43.848;25.958;2022-12-07T06:48:30;33.08;;;17.15;;
22334;SDS011;11335;43.848;25.958;2022-12-07T06:51:16;35.33;;;17.75;;
22334;SDS011;11335;43.848;25.958;2022-12-07T06:54:02;34.17;;;16.40;;
22334;SDS011;11335;43.848;25.958;2022-12-07T06:56:48;30.40;;;15.27;;
22334;SDS011;11335;43.848;25.958;2022-12-07T06:59:34;33.45;;;16.35;;
22334;SDS011;11335;43.848;25.958;2022-12-07T07:02:19;31.35;;;15.90;;
22334;SDS011;11335;43.848;25.958;2022-12-07T07:05:05;38.92;;;20.55;;
22334;SDS011;11335;43.848;25.958;2022-12-07T07:07:51;31.65;;;15.70;;
22334;SDS011;11335;43.848;25.958;2022-12-07T07:10:36;34.70;;;16.60;;
22334;SDS011;11335;43.848;25.958;2022-12-07T07:13:22;31.13;;;15.75;;
22334;SDS011;11335;43.848;25.958;2022-12-07T07:16:07;31.15;;;16.98;;
22334;SDS011;11335;43.848;25.958;2022-12-07T07:18:53;36.05;;;17.15;;
22334;SDS011;11335;43.848;25.958;2022-12-07T07:21:39;33.40;;;16.70;;
22334;SDS011;11335;43.848;25.958;2022-12-07T07:24:24;34.45;;;17.15;;
22334;SDS011;11335;43.848;25.958;2022-12-07T07:27:10;36.42;;;17.85;;
22334;SDS011;11335;43.848;25.958;2022-12-07T07:29:55;31.05;;;16.33;;
22334;SDS011;11335;43.848;25.958;2022-12-07T07:32:41;35.38;;;17.40;;
22334;SDS011;11335;43.848;25.958;2022-12-07T07:35:27;31.73;;;16.73;;
22334;SDS011;11335;43.848;25.958;2022-12-07T07:38:13;35.05;;;17.70;;
22334;SDS011;11335;43.848;25.958;2022-12-07T07:40:58;35.17;;;16.92;;
22334;SDS011;11335;43.848;25.958;2022-12-07T07:43:44;37.35;;;18.30;;
22334;SDS011;11335;43.848;25.958;2022-12-07T07:46:30;36.22;;;18.85;;
22334;SDS011;11335;43.848;25.958;2022-12-07T07:49:15;41.17;;;20.80;;
22334;SDS011;11335;43.848;25.958;2022-12-07T07:52:01;40.30;;;21.08;;
22334;SDS011;11335;43.848;25.958;2022-12-07T07:54:46;32.88;;;17.70;;
22334;SDS011;11335;43.848;25.958;2022-12-07T07:57:32;34.17;;;17.38;;
22334;SDS011;11335;43.848;25.958;2022-12-07T08:00:18;30.88;;;17.55;;
22334;SDS011;11335;43.848;25.958;2022-12-07T08:03:04;30.00;;;15.95;;
22334;SDS011;11335;43.848;25.958;2022-12-07T08:05:49;29.52;;;16.58;;
22334;SDS011;11335;43.848;25.958;2022-12-07T08:08:35;28.02;;;17.05;;
22334;SDS011;11335;43.848;25.958;2022-12-07T08:11:20;30.48;;;16.65;;
22334;SDS011;11335;43.848;25.958;2022-12-07T08:14:06;30.80;;;16.45;;
22334;SDS011;11335;43.848;25.958;2022-12-07T08:16:52;29.65;;;14.85;;
22334;SDS011;11335;43.848;25.958;2022-12-07T08:19:37;33.30;;;16.50;;
22334;SDS011;11335;43.848;25.958;2022-12-07T08:22:23;31.95;;;17.00;;
22334;SDS011;11335;43.848;25.958;2022-12-07T08:25:08;32.17;;;16.50;;
22334;SDS011;11335;43.848;25.958;2022-12-07T08:27:54;29.30;;;16.05;;
22334;SDS011;11335;43.848;25.958;2022-12-07T08:30:40;31.38;;;17.00;;
22334;SDS011;11335;43.848;25.958;2022-12-07T08:33:25;40.35;;;20.80;;
22334;SDS011;11335;43.848;25.958;2022-12-07T08:36:11;33.00;;;17.73;;
22334;SDS011;11335;43.848;25.958;2022-12-07T08:38:57;32.50;;;17.05;;
22334;SDS011;11335;43.848;25.958;2022-12-07T08:41:43;31.38;;;16.90;;
22334;SDS011;11335;43.848;25.958;2022-12-07T08:44:28;31.67;;;16.85;;
22334;SDS011;11335;43.848;25.958;2022-12-07T08:47:14;34.53;;;17.67;;
22334;SDS011;11335;43.848;25.958;2022-12-07T08:49:59;35.92;;;18.38;;
22334;SDS011;11335;43.848;25.958;2022-12-07T08:52:49;29.42;;;16.35;;
22334;SDS011;11335;43.848;25.958;2022-12-07T08:55:37;29.88;;;15.98;;
22334;SDS011;11335;43.848;25.958;2022-12-07T08:58:22;30.35;;;16.85;;
22334;SDS011;11335;43.848;25.958;2022-12-07T09:01:08;33.38;;;16.75;;
22334;SDS011;11335;43.848;25.958;2022-12-07T09:03:54;32.85;;;17.70;;
22334;SDS011;11335;43.848;25.958;2022-12-07T09:06:40;31.67;;;17.88;;
22334;SDS011;11335;43.848;25.958;2022-12-07T09:09:26;31.50;;;17.15;;
22334;SDS011;11335;43.848;25.958;2022-12-07T09:12:11;29.70;;;17.27;;
22334;SDS011;11335;43.848;25.958;2022-12-07T09:14:57;34.30;;;18.92;;
22334;SDS011;11335;43.848;25.958;2022-12-07T09:17:42;29.45;;;17.20;;
22334;SDS011;11335;43.848;25.958;2022-12-07T09:20:28;32.22;;;17.60;;
22334;SDS011;11335;43.848;25.958;2022-12-07T09:23:13;23.00;;;14.23;;
22334;SDS011;11335;43.848;25.958;2022-12-07T09:25:59;26.42;;;15.45;;
22334;SDS011;11335;43.848;25.958;2022-12-07T09:28:46;31.67;;;16.15;;
22334;SDS011;11335;43.848;25.958;2022-12-07T09:31:31;25.13;;;15.68;;
22334;SDS011;11335;43.848;25.958;2022-12-07T09:34:17;27.60;;;16.00;;
22334;SDS011;11335;43.848;25.958;2022-12-07T09:37:02;26.23;;;14.80;;
22334;SDS011;11335;43.848;25.958;2022-12-07T09:39:48;27.90;;;16.05;;
22334;SDS011;11335;43.848;25.958;2022-12-07T09:42:35;25.25;;;14.98;;
22334;SDS011;11335;43.848;25.958;2022-12-07T09:45:27;26.17;;;15.27;;
22334;SDS011;11335;43.848;25.958;2022-12-07T09:48:17;24.77;;;14.68;;
22334;SDS011;11335;43.848;25.958;2022-12-07T09:51:09;24.35;;;14.30;;
22334;SDS011;11335;43.848;25.958;2022-12-07T09:53:58;22.02;;;13.52;;
22334;SDS011;11335;43.848;25.958;2022-12-07T09:56:44;24.83;;;14.95;;
22334;SDS011;11335;43.848;25.958;2022-12-07T09:59:30;25.25;;;14.57;;
22334;SDS011;11335;43.848;25.958;2022-12-07T10:02:31;21.20;;;13.05;;
22334;SDS011;11335;43.848;25.958;2022-12-07T10:05:24;21.35;;;12.55;;
22334;SDS011;11335;43.848;25.958;2022-12-07T10:08:12;54.08;;;25.50;;
22334;SDS011;11335;43.848;25.958;2022-12-07T10:10:58;23.85;;;14.02;;
22334;SDS011;11335;43.848;25.958;2022-12-07T10:13:45;24.33;;;14.95;;
22334;SDS011;11335;43.848;25.958;2022-12-07T10:16:40;18.30;;;11.32;;
22334;SDS011;11335;43.848;25.958;2022-12-07T10:19:30;19.13;;;11.40;;
22334;SDS011;11335;43.848;25.958;2022-12-07T10:22:16;19.25;;;11.93;;
22334;SDS011;11335;43.848;25.958;2022-12-07T10:25:08;17.05;;;10.98;;
22334;SDS011;11335;43.848;25.958;2022-12-07T10:28:02;19.15;;;12.10;;
22334;SDS011;11335;43.848;25.958;2022-12-07T10:30:50;24.02;;;13.38;;
22334;SDS011;11335;43.848;25.958;2022-12-07T10:36:39;21.80;;;13.35;;
22334;SDS011;11335;43.848;25.958;2022-12-07T10:39:25;21.27;;;12.93;;
22334;SDS011;11335;43.848;25.958;2022-12-07T10:42:18;24.10;;;14.55;;
22334;SDS011;11335;43.848;25.958;2022-12-07T10:45:22;22.20;;;13.38;;
22334;SDS011;11335;43.848;25.958;2022-12-07T11:00:25;29.30;;;15.18;;
22334;SDS011;11335;43.848;25.958;2022-12-07T11:15:28;30.13;;;16.70;;
22334;SDS011;11335;43.848;25.958;2022-12-07T11:18:29;30.27;;;18.67;;
22334;SDS011;11335;43.848;25.958;2022-12-07T11:38:50;24.98;;;14.93;;
22334;SDS011;11335;43.848;25.958;2022-12-07T11:41:36;24.80;;;15.07;;
22334;SDS011;11335;43.848;25.958;2022-12-07T11:47:30;24.73;;;15.20;;
22334;SDS011;11335;43.848;25.958;2022-12-07T11:53:05;21.98;;;14.32;;
22334;SDS011;11335;43.848;25.958;2022-12-07T11:56:11;28.70;;;16.35;;
22334;SDS011;11335;43.848;25.958;2022-12-07T11:59:00;30.00;;;17.63;;
22334;SDS011;11335;43.848;25.958;2022-12-07T12:02:02;27.05;;;17.25;;
22334;SDS011;11335;43.848;25.958;2022-12-07T12:04:56;29.55;;;19.15;;
22334;SDS011;11335;43.848;25.958;2022-12-07T12:07:44;28.80;;;17.13;;
22334;SDS011;11335;43.848;25.958;2022-12-07T12:10:42;30.77;;;16.98;;
22334;SDS011;11335;43.848;25.958;2022-12-07T12:19:25;29.55;;;17.88;;
22334;SDS011;11335;43.848;25.958;2022-12-07T12:22:17;30.80;;;17.90;;
22334;SDS011;11335;43.848;25.958;2022-12-07T12:33:55;38.22;;;20.35;;
22334;SDS011;11335;43.848;25.958;2022-12-07T12:36:49;34.78;;;20.35;;
22334;SDS011;11335;43.848;25.958;2022-12-07T12:39:35;31.85;;;18.95;;
22334;SDS011;11335;43.848;25.958;2022-12-07T12:42:21;33.38;;;20.40;;
22334;SDS011;11335;43.848;25.958;2022-12-07T12:45:44;34.70;;;19.70;;
22334;SDS011;11335;43.848;25.958;2022-12-07T12:48:42;31.25;;;19.60;;
22334;SDS011;11335;43.848;25.958;2022-12-07T12:51:38;35.33;;;20.38;;
22334;SDS011;11335;43.848;25.958;2022-12-07T12:57:48;41.33;;;22.05;;
22334;SDS011;11335;43.848;25.958;2022-12-07T13:03:57;34.83;;;21.38;;
22334;SDS011;11335;43.848;25.958;2022-12-07T13:06:43;34.63;;;20.40;;
22334;SDS011;11335;43.848;25.958;2022-12-07T13:09:29;32.05;;;20.27;;
22334;SDS011;11335;43.848;25.958;2022-12-07T13:12:17;36.63;;;20.70;;
22334;SDS011;11335;43.848;25.958;2022-12-07T13:15:19;34.55;;;19.98;;
22334;SDS011;11335;43.848;25.958;2022-12-07T13:23:59;38.38;;;22.02;;
22334;SDS011;11335;43.848;25.958;2022-12-07T13:26:51;35.75;;;21.77;;
22334;SDS011;11335;43.848;25.958;2022-12-07T13:29:43;37.00;;;22.02;;
22334;SDS011;11335;43.848;25.958;2022-12-07T13:32:29;37.33;;;21.23;;
22334;SDS011;11335;43.848;25.958;2022-12-07T13:38:20;44.30;;;25.08;;
22334;SDS011;11335;43.848;25.958;2022-12-07T13:41:15;50.00;;;26.67;;
22334;SDS011;11335;43.848;25.958;2022-12-07T13:49:45;50.83;;;28.92;;
22334;SDS011;11335;43.848;25.958;2022-12-07T13:52:31;49.92;;;26.50;;
22334;SDS011;11335;43.848;25.958;2022-12-07T13:55:17;51.33;;;29.15;;
22334;SDS011;11335;43.848;25.958;2022-12-07T13:58:02;62.42;;;31.88;;
22334;SDS011;11335;43.848;25.958;2022-12-07T14:00:48;53.65;;;28.75;;
22334;SDS011;11335;43.848;25.958;2022-12-07T14:03:35;60.05;;;29.95;;
22334;SDS011;11335;43.848;25.958;2022-12-07T14:06:30;52.95;;;28.23;;
22334;SDS011;11335;43.848;25.958;2022-12-07T14:12:05;51.63;;;28.17;;
22334;SDS011;11335;43.848;25.958;2022-12-07T14:14:51;55.28;;;27.92;;
22334;SDS011;11335;43.848;25.958;2022-12-07T14:17:38;54.22;;;29.50;;
22334;SDS011;11335;43.848;25.958;2022-12-07T14:20:35;52.67;;;27.23;;
22334;SDS011;11335;43.848;25.958;2022-12-07T14:23:23;53.08;;;27.98;;
22334;SDS011;11335;43.848;25.958;2022-12-07T14:29:17;57.72;;;28.58;;
22334;SDS011;11335;43.848;25.958;2022-12-07T14:35:12;55.80;;;28.25;;
22334;SDS011;11335;43.848;25.958;2022-12-07T14:37:58;72.70;;;31.58;;
22334;SDS011;11335;43.848;25.958;2022-12-07T14:40:43;63.75;;;32.15;;
22334;SDS011;11335;43.848;25.958;2022-12-07T14:43:29;68.60;;;33.38;;
22334;SDS011;11335;43.848;25.958;2022-12-07T14:46:15;70.10;;;33.38;;
22334;SDS011;11335;43.848;25.958;2022-12-07T14:49:00;70.28;;;33.03;;
22334;SDS011;11335;43.848;25.958;2022-12-07T14:51:46;64.68;;;33.20;;
22334;SDS011;11335;43.848;25.958;2022-12-07T14:54:32;67.88;;;34.75;;
22334;SDS011;11335;43.848;25.958;2022-12-07T14:57:18;65.93;;;32.90;;
22334;SDS011;11335;43.848;25.958;2022-12-07T15:00:04;62.58;;;31.20;;
22334;SDS011;11335;43.848;25.958;2022-12-07T15:02:50;64.20;;;31.63;;
22334;SDS011;11335;43.848;25.958;2022-12-07T15:05:36;68.03;;;32.65;;
22334;SDS011;11335;43.848;25.958;2022-12-07T15:08:22;66.45;;;32.17;;
22334;SDS011;11335;43.848;25.958;2022-12-07T15:11:10;66.35;;;32.55;;
22334;SDS011;11335;43.848;25.958;2022-12-07T15:14:00;65.53;;;31.38;;
22334;SDS011;11335;43.848;25.958;2022-12-07T15:16:56;68.50;;;32.08;;
22334;SDS011;11335;43.848;25.958;2022-12-07T15:19:44;63.08;;;31.05;;
22334;SDS011;11335;43.848;25.958;2022-12-07T15:22:29;64.85;;;32.30;;
22334;SDS011;11335;43.848;25.958;2022-12-07T15:25:16;77.68;;;36.17;;
22334;SDS011;11335;43.848;25.958;2022-12-07T15:28:05;64.47;;;32.10;;
22334;SDS011;11335;43.848;25.958;2022-12-07T15:30:50;70.22;;;34.60;;
22334;SDS011;11335;43.848;25.958;2022-12-07T15:33:36;65.13;;;32.15;;
22334;SDS011;11335;43.848;25.958;2022-12-07T15:36:23;65.20;;;34.40;;
22334;SDS011;11335;43.848;25.958;2022-12-07T15:39:09;73.25;;;33.67;;
22334;SDS011;11335;43.848;25.958;2022-12-07T15:41:58;66.60;;;34.70;;
22334;SDS011;11335;43.848;25.958;2022-12-07T15:44:43;74.25;;;34.88;;
22334;SDS011;11335;43.848;25.958;2022-12-07T15:47:47;60.83;;;30.80;;
22334;SDS011;11335;43.848;25.958;2022-12-07T15:50:33;65.85;;;32.95;;
22334;SDS011;11335;43.848;25.958;2022-12-07T15:53:20;76.07;;;35.08;;
22334;SDS011;11335;43.848;25.958;2022-12-07T15:56:06;69.18;;;34.33;;
22334;SDS011;11335;43.848;25.958;2022-12-07T15:58:52;69.45;;;35.20;;
22334;SDS011;11335;43.848;25.958;2022-12-07T16:01:37;80.35;;;37.42;;
22334;SDS011;11335;43.848;25.958;2022-12-07T16:04:23;72.10;;;33.63;;
22334;SDS011;11335;43.848;25.958;2022-12-07T16:07:09;61.63;;;30.42;;
22334;SDS011;11335;43.848;25.958;2022-12-07T16:09:56;64.22;;;31.27;;
22334;SDS011;11335;43.848;25.958;2022-12-07T16:12:42;72.63;;;33.58;;
22334;SDS011;11335;43.848;25.958;2022-12-07T16:15:27;76.15;;;33.40;;
22334;SDS011;11335;43.848;25.958;2022-12-07T16:18:13;64.93;;;30.67;;
22334;SDS011;11335;43.848;25.958;2022-12-07T16:20:59;77.07;;;38.33;;
22334;SDS011;11335;43.848;25.958;2022-12-07T16:23:44;66.00;;;30.75;;
22334;SDS011;11335;43.848;25.958;2022-12-07T16:26:30;65.47;;;32.75;;
22334;SDS011;11335;43.848;25.958;2022-12-07T16:29:17;66.80;;;32.45;;
22334;SDS011;11335;43.848;25.958;2022-12-07T16:32:03;67.07;;;33.40;;
22334;SDS011;11335;43.848;25.958;2022-12-07T16:34:48;61.10;;;31.63;;
22334;SDS011;11335;43.848;25.958;2022-12-07T16:37:34;72.60;;;31.80;;
22334;SDS011;11335;43.848;25.958;2022-12-07T16:40:20;59.72;;;29.25;;
22334;SDS011;11335;43.848;25.958;2022-12-07T16:43:06;65.38;;;30.50;;
22334;SDS011;11335;43.848;25.958;2022-12-07T16:45:51;58.53;;;29.08;;
22334;SDS011;11335;43.848;25.958;2022-12-07T16:48:38;63.50;;;29.23;;
22334;SDS011;11335;43.848;25.958;2022-12-07T16:51:24;64.85;;;30.45;;
22334;SDS011;11335;43.848;25.958;2022-12-07T16:54:10;69.45;;;30.58;;
22334;SDS011;11335;43.848;25.958;2022-12-07T16:56:56;68.20;;;31.45;;
22334;SDS011;11335;43.848;25.958;2022-12-07T16:59:41;67.65;;;30.98;;
22334;SDS011;11335;43.848;25.958;2022-12-07T17:02:27;78.40;;;32.10;;
22334;SDS011;11335;43.848;25.958;2022-12-07T17:05:13;73.03;;;31.83;;
22334;SDS011;11335;43.848;25.958;2022-12-07T17:07:58;75.72;;;33.88;;
22334;SDS011;11335;43.848;25.958;2022-12-07T17:10:44;85.45;;;38.75;;
22334;SDS011;11335;43.848;25.958;2022-12-07T17:13:30;71.40;;;34.63;;
22334;SDS011;11335;43.848;25.958;2022-12-07T17:16:34;68.63;;;29.35;;
22334;SDS011;11335;43.848;25.958;2022-12-07T17:19:20;61.63;;;28.73;;
22334;SDS011;11335;43.848;25.958;2022-12-07T17:22:06;60.90;;;27.35;;
22334;SDS011;11335;43.848;25.958;2022-12-07T17:24:51;60.15;;;30.40;;
22334;SDS011;11335;43.848;25.958;2022-12-07T17:27:37;64.68;;;32.05;;
22334;SDS011;11335;43.848;25.958;2022-12-07T17:30:23;58.45;;;27.65;;
22334;SDS011;11335;43.848;25.958;2022-12-07T17:33:09;58.15;;;28.70;;
22334;SDS011;11335;43.848;25.958;2022-12-07T17:35:54;62.22;;;27.60;;
22334;SDS011;11335;43.848;25.958;2022-12-07T17:38:40;63.60;;;27.42;;
22334;SDS011;11335;43.848;25.958;2022-12-07T17:41:26;57.80;;;26.48;;
22334;SDS011;11335;43.848;25.958;2022-12-07T17:44:31;58.28;;;26.95;;
22334;SDS011;11335;43.848;25.958;2022-12-07T17:47:17;56.25;;;27.15;;
22334;SDS011;11335;43.848;25.958;2022-12-07T17:50:03;60.47;;;26.70;;
22334;SDS011;11335;43.848;25.958;2022-12-07T17:52:50;65.22;;;27.38;;
22334;SDS011;11335;43.848;25.958;2022-12-07T17:55:54;62.50;;;27.42;;
22334;SDS011;11335;43.848;25.958;2022-12-07T17:58:40;63.78;;;28.23;;
22334;SDS011;11335;43.848;25.958;2022-12-07T18:01:26;54.83;;;26.27;;
22334;SDS011;11335;43.848;25.958;2022-12-07T18:04:11;67.22;;;28.88;;
22334;SDS011;11335;43.848;25.958;2022-12-07T18:06:57;60.63;;;27.17;;
22334;SDS011;11335;43.848;25.958;2022-12-07T18:09:43;68.50;;;29.05;;
22334;SDS011;11335;43.848;25.958;2022-12-07T18:12:28;67.88;;;29.58;;
22334;SDS011;11335;43.848;25.958;2022-12-07T18:15:14;72.93;;;30.55;;
22334;SDS011;11335;43.848;25.958;2022-12-07T18:17:59;67.53;;;29.92;;
22334;SDS011;11335;43.848;25.958;2022-12-07T18:20:45;62.28;;;27.88;;
22334;SDS011;11335;43.848;25.958;2022-12-07T18:23:31;61.13;;;26.80;;
22334;SDS011;11335;43.848;25.958;2022-12-07T18:26:18;72.30;;;28.92;;